createdAt,value
2018-12-16T00:02:21.360Z,74.80
2018-12-16T00:04:50.885Z,74.60
2018-12-16T00:07:20.524Z,75.10
2018-12-16T00:09:49.613Z,75.20
2018-12-16T00:12:19.629Z,76.10
2018-12-16T00:14:48.942Z,75.40
2018-12-16T00:17:18.122Z,75.20
2018-12-16T00:19:47.117Z,74.50
2018-12-16T00:22:15.891Z,75.20
2018-12-16T00:24:45.236Z,75.30
2018-12-16T00:27:14.615Z,74.90
2018-12-16T00:29:44.257Z,74.30
2018-12-16T00:32:13.023Z,74.30
2018-12-16T00:34:42.409Z,73.90
2018-12-16T00:37:10.992Z,73.30
2018-12-16T00:39:43.716Z,73.90
2018-12-16T00:42:13.014Z,73.40
2018-12-16T00:44:42.478Z,72.60
2018-12-16T00:47:12.324Z,73.00
2018-12-16T00:49:41.805Z,73.30
2018-12-16T00:52:11.019Z,73.60
2018-12-16T00:54:39.854Z,73.30
2018-12-16T00:57:08.601Z,73.20
2018-12-16T00:59:37.341Z,73.40
2018-12-16T01:02:08.776Z,73.30
2018-12-16T01:04:37.949Z,72.70
2018-12-16T01:07:06.908Z,72.80
2018-12-16T01:09:35.791Z,73.50
2018-12-16T01:12:05.335Z,73.60
2018-12-16T01:14:35.861Z,72.80
2018-12-16T01:17:04.786Z,72.80
2018-12-16T01:19:33.592Z,72.90
2018-12-16T01:22:03.373Z,73.30
2018-12-16T01:24:32.698Z,73.40
2018-12-16T01:27:01.696Z,73.50
2018-12-16T01:29:30.347Z,74.50
2018-12-16T01:31:59.672Z,74.00
2018-12-16T01:34:28.422Z,74.30
2018-12-16T01:36:57.784Z,74.90
2018-12-16T01:39:26.525Z,75.40
2018-12-16T01:41:56.055Z,75.50
2018-12-16T01:44:25.525Z,75.20
2018-12-16T01:46:55.003Z,75.90
2018-12-16T01:49:23.879Z,76.00
2018-12-16T01:51:52.709Z,76.50
2018-12-16T01:54:21.769Z,76.20
2018-12-16T01:56:51.339Z,75.80
2018-12-16T01:59:20.039Z,75.60
2018-12-16T02:01:55.227Z,75.60
2018-12-16T02:04:24.610Z,76.80
2018-12-16T02:06:53.768Z,77.00
2018-12-16T02:09:23.269Z,77.50
2018-12-16T02:11:52.297Z,77.20
2018-12-16T02:14:20.918Z,76.90
2018-12-16T02:16:50.437Z,77.20
2018-12-16T02:19:19.456Z,77.10
2018-12-16T02:21:48.760Z,77.10
2018-12-16T02:24:17.951Z,77.30
2018-12-16T02:26:47.799Z,77.10
2018-12-16T02:29:16.887Z,77.50
2018-12-16T02:31:45.959Z,77.70
2018-12-16T02:34:15.340Z,77.80
2018-12-16T02:36:44.604Z,78.70
2018-12-16T02:39:13.947Z,79.10
2018-12-16T02:41:42.820Z,79.60
2018-12-16T02:44:12.446Z,80.30
2018-12-16T02:46:41.903Z,80.60
2018-12-16T02:49:10.969Z,80.20
2018-12-16T02:51:41.047Z,81.20
2018-12-16T02:54:09.964Z,82.30
2018-12-16T02:56:39.591Z,83.60
2018-12-16T02:59:08.404Z,82.50
2018-12-16T03:01:39.544Z,82.30
2018-12-16T03:04:08.885Z,83.90
2018-12-16T03:06:38.121Z,85.60
2018-12-16T03:09:07.346Z,84.70
2018-12-16T03:11:36.517Z,84.40
2018-12-16T03:14:05.437Z,85.10
2018-12-16T03:16:34.638Z,86.10
2018-12-16T03:19:04.235Z,86.90
2018-12-16T03:21:33.686Z,87.70
2018-12-16T03:24:02.604Z,88.60
2018-12-16T03:26:35.846Z,88.50
2018-12-16T03:29:02.354Z,89.10
2018-12-16T03:31:31.895Z,90.10
2018-12-16T03:34:00.952Z,90.20
2018-12-16T03:36:30.132Z,90.60
2018-12-16T03:38:58.726Z,90.40
2018-12-16T03:41:27.996Z,90.90
2018-12-16T03:43:57.673Z,90.60
2018-12-16T03:46:26.546Z,90.50
2018-12-16T03:48:55.432Z,90.50
2018-12-16T03:51:24.315Z,90.20
2018-12-16T03:53:54.072Z,90.40
2018-12-16T03:56:23.056Z,90.80
2018-12-16T03:59:03.746Z,90.60
2018-12-16T04:01:33.273Z,90.40
2018-12-16T04:04:02.686Z,90.10
2018-12-16T04:06:31.269Z,90.20
2018-12-16T04:09:00.898Z,90.60
2018-12-16T04:11:30.747Z,90.80
2018-12-16T04:13:59.592Z,91.20
2018-12-16T04:16:28.458Z,90.70
2018-12-16T04:18:57.235Z,90.90
2018-12-16T04:21:26.591Z,91.00
2018-12-16T04:23:55.333Z,90.30
2018-12-16T04:26:24.753Z,90.50
2018-12-16T04:28:53.371Z,90.60
2018-12-16T04:31:21.981Z,90.90
2018-12-16T04:33:50.911Z,90.80
2018-12-16T04:36:19.800Z,91.20
2018-12-16T04:38:48.923Z,91.40
2018-12-16T04:41:18.390Z,91.30
2018-12-16T04:43:47.771Z,91.20
2018-12-16T04:46:17.505Z,91.00
2018-12-16T04:48:47.240Z,90.90
2018-12-16T04:51:15.934Z,91.10
2018-12-16T04:53:45.108Z,91.20
2018-12-16T04:56:13.816Z,91.00
2018-12-16T04:58:43.170Z,90.90
2018-12-16T05:01:11.950Z,91.10
2018-12-16T05:03:41.002Z,91.00
2018-12-16T05:06:09.978Z,91.00
2018-12-16T05:08:39.618Z,90.80
2018-12-16T05:11:09.106Z,90.30
2018-12-16T05:13:37.831Z,90.20
2018-12-16T05:16:07.282Z,90.30
2018-12-16T05:18:36.103Z,90.10
2018-12-16T05:21:05.001Z,90.20
2018-12-16T05:23:34.192Z,90.80
2018-12-16T05:26:02.891Z,90.70
2018-12-16T05:28:31.974Z,90.80
2018-12-16T05:31:01.461Z,90.90
2018-12-16T05:33:30.474Z,91.10
2018-12-16T05:36:00.025Z,91.40
2018-12-16T05:38:29.035Z,91.40
2018-12-16T05:40:58.649Z,91.20
2018-12-16T05:43:28.133Z,91.30
2018-12-16T05:45:57.206Z,91.90
2018-12-16T05:48:25.869Z,91.40
2018-12-16T05:50:54.634Z,91.30
2018-12-16T05:53:23.723Z,91.20
2018-12-16T05:55:52.855Z,91.60
2018-12-16T05:58:22.384Z,91.50
2018-12-16T06:00:51.929Z,91.70
2018-12-16T06:03:21.466Z,91.60
2018-12-16T06:05:51.332Z,91.80
2018-12-16T06:08:20.553Z,91.70
2018-12-16T06:10:49.127Z,91.40
2018-12-16T06:13:18.133Z,91.50
2018-12-16T06:15:47.111Z,91.80
2018-12-16T06:18:16.896Z,92.10
2018-12-16T06:20:46.395Z,92.70
2018-12-16T06:23:15.812Z,92.70
2018-12-16T06:25:45.445Z,92.40
2018-12-16T06:28:14.413Z,92.10
2018-12-16T06:30:44.598Z,91.80
2018-12-16T06:33:14.162Z,91.50
2018-12-16T06:35:43.605Z,91.70
2018-12-16T06:38:13.430Z,91.70
2018-12-16T06:40:42.316Z,91.50
2018-12-16T06:43:11.294Z,91.80
2018-12-16T06:45:40.748Z,91.90
2018-12-16T06:48:09.625Z,92.00
2018-12-16T06:50:38.924Z,91.30
2018-12-16T06:53:07.694Z,91.50
2018-12-16T06:55:43.120Z,91.90
2018-12-16T06:58:07.306Z,92.20
2018-12-16T07:00:36.106Z,91.70
2018-12-16T07:03:04.980Z,92.20
2018-12-16T07:05:33.617Z,91.40
2018-12-16T07:08:03.085Z,91.70
2018-12-16T07:10:32.454Z,91.30
2018-12-16T07:13:02.260Z,91.50
2018-12-16T07:15:31.635Z,91.70
2018-12-16T07:18:01.109Z,91.10
2018-12-16T07:20:30.731Z,91.60
2018-12-16T07:23:00.141Z,92.10
2018-12-16T07:25:28.878Z,91.80
2018-12-16T07:27:57.636Z,91.60
2018-12-16T07:30:27.916Z,91.50
2018-12-16T07:32:57.623Z,91.80
2018-12-16T07:35:26.918Z,91.50
2018-12-16T07:37:55.700Z,91.20
2018-12-16T07:40:25.022Z,91.30
2018-12-16T07:42:54.695Z,91.50
2018-12-16T07:45:24.142Z,92.10
2018-12-16T07:47:52.811Z,91.80
2018-12-16T07:50:22.358Z,92.20
2018-12-16T07:52:51.789Z,91.70
2018-12-16T07:55:21.293Z,92.40
2018-12-16T07:57:50.994Z,91.70
2018-12-16T08:00:19.824Z,92.20
2018-12-16T08:02:49.081Z,92.10
2018-12-16T08:05:18.147Z,92.20
2018-12-16T08:07:47.174Z,92.00
2018-12-16T08:10:15.958Z,92.00
2018-12-16T08:12:46.272Z,92.20
2018-12-16T08:15:15.412Z,92.20
2018-12-16T08:17:44.205Z,92.50
2018-12-16T08:20:13.927Z,92.50
2018-12-16T08:22:43.219Z,92.50
2018-12-16T08:25:12.718Z,92.80
2018-12-16T08:27:42.426Z,93.00
2018-12-16T08:30:11.975Z,92.50
2018-12-16T08:32:40.752Z,92.50
2018-12-16T08:35:10.093Z,92.20
2018-12-16T08:37:38.968Z,92.70
2018-12-16T08:40:08.139Z,92.60
2018-12-16T08:42:37.502Z,92.40
2018-12-16T08:45:08.235Z,93.00
2018-12-16T08:47:37.728Z,92.70
2018-12-16T08:50:07.469Z,93.00
2018-12-16T08:52:36.825Z,93.50
2018-12-16T08:55:06.483Z,93.40
2018-12-16T08:57:35.398Z,92.50
2018-12-16T09:00:04.973Z,92.50
2018-12-16T09:02:34.013Z,92.80
2018-12-16T09:05:03.262Z,93.20
2018-12-16T09:07:37.213Z,93.60
2018-12-16T09:10:04.515Z,93.90
2018-12-16T09:12:34.922Z,93.80
2018-12-16T09:15:04.285Z,94.00
2018-12-16T09:17:33.764Z,94.10
2018-12-16T09:20:03.308Z,93.90
2018-12-16T09:22:32.748Z,93.50
2018-12-16T09:25:02.322Z,93.00
2018-12-16T09:27:31.949Z,93.90
2018-12-16T09:30:00.757Z,93.50
2018-12-16T09:32:30.095Z,93.80
2018-12-16T09:35:00.037Z,94.00
2018-12-16T09:37:29.494Z,93.60
2018-12-16T09:39:58.416Z,94.20
2018-12-16T09:42:27.924Z,94.00
2018-12-16T09:44:57.479Z,93.40
2018-12-16T09:47:26.829Z,92.50
2018-12-16T09:49:55.817Z,93.00
2018-12-16T09:52:25.309Z,93.00
2018-12-16T09:54:54.046Z,92.50
2018-12-16T09:57:23.004Z,92.70
2018-12-16T09:59:52.920Z,92.90
2018-12-16T10:02:22.419Z,92.50
2018-12-16T10:04:51.778Z,92.00
2018-12-16T10:07:21.473Z,92.10
2018-12-16T10:09:50.081Z,91.60
2018-12-16T10:12:18.795Z,91.60
2018-12-16T10:14:47.683Z,91.60
2018-12-16T10:17:16.675Z,91.70
2018-12-16T10:19:45.395Z,91.60
2018-12-16T10:22:15.935Z,91.40
2018-12-16T10:24:51.030Z,91.00
2018-12-16T10:27:16.187Z,90.80
2018-12-16T10:29:45.720Z,90.90
2018-12-16T10:32:14.499Z,90.70
2018-12-16T10:34:43.538Z,90.50
2018-12-16T10:37:13.003Z,90.80
2018-12-16T10:39:43.035Z,90.90
2018-12-16T10:42:12.550Z,90.70
2018-12-16T10:44:42.852Z,90.70
2018-12-16T10:47:11.572Z,91.00
2018-12-16T10:49:40.770Z,90.90
2018-12-16T10:52:10.601Z,91.90
2018-12-16T10:54:40.025Z,92.40
2018-12-16T10:57:08.669Z,92.70
2018-12-16T10:59:37.858Z,92.90
2018-12-16T11:02:07.589Z,93.10
2018-12-16T11:04:36.503Z,93.30
2018-12-16T11:07:05.973Z,92.60
2018-12-16T11:09:35.334Z,92.10
2018-12-16T11:12:04.977Z,92.50
2018-12-16T11:14:33.993Z,92.10
2018-12-16T11:17:03.032Z,92.20
2018-12-16T11:19:32.651Z,92.10
2018-12-16T11:22:01.553Z,92.20
2018-12-16T11:24:30.550Z,92.20
2018-12-16T11:27:00.671Z,92.00
2018-12-16T11:29:29.589Z,91.80
2018-12-16T11:31:58.447Z,91.60
2018-12-16T11:34:27.329Z,91.50
2018-12-16T11:36:56.236Z,91.40
2018-12-16T11:39:25.250Z,91.30
2018-12-16T11:41:54.245Z,91.20
2018-12-16T11:44:23.683Z,91.30
2018-12-16T11:46:53.156Z,91.50
2018-12-16T11:49:22.938Z,91.20
2018-12-16T11:51:52.582Z,91.20
2018-12-16T11:54:21.782Z,91.10
2018-12-16T11:56:50.633Z,91.10
2018-12-16T11:59:19.493Z,91.00
2018-12-16T12:01:48.613Z,90.90
2018-12-16T12:04:17.508Z,90.90
2018-12-16T12:06:46.211Z,90.80
2018-12-16T12:09:15.106Z,90.70
2018-12-16T12:11:43.744Z,90.70
2018-12-16T12:14:13.081Z,90.90
2018-12-16T12:16:41.960Z,90.70
2018-12-16T12:19:10.576Z,90.70
2018-12-16T12:21:39.879Z,90.70
2018-12-16T12:24:09.460Z,90.70
2018-12-16T12:26:38.851Z,90.60
2018-12-16T12:29:07.785Z,90.50
2018-12-16T12:31:36.542Z,90.50
2018-12-16T12:34:05.536Z,90.50
2018-12-16T12:36:34.993Z,90.40
2018-12-16T12:39:04.737Z,90.40
2018-12-16T12:41:34.089Z,90.50
2018-12-16T12:44:03.649Z,90.40
2018-12-16T12:46:33.260Z,90.40
2018-12-16T12:49:02.727Z,90.20
2018-12-16T12:51:32.374Z,90.10
2018-12-16T12:54:01.058Z,90.40
2018-12-16T12:56:30.352Z,90.00
2018-12-16T12:58:59.851Z,89.70
2018-12-16T13:01:28.524Z,89.60
2018-12-16T13:03:57.683Z,89.40
2018-12-16T13:06:26.568Z,89.20
2018-12-16T13:08:55.204Z,89.40
2018-12-16T13:11:24.889Z,89.50
2018-12-16T13:13:54.081Z,89.60
2018-12-16T13:16:23.857Z,89.70
2018-12-16T13:18:52.872Z,90.20
2018-12-16T13:21:21.932Z,90.10
2018-12-16T13:23:50.630Z,90.30
2018-12-16T13:26:19.919Z,90.40
2018-12-16T13:28:49.424Z,90.60
2018-12-16T13:31:19.196Z,90.70
2018-12-16T13:33:47.791Z,90.90
2018-12-16T13:36:16.598Z,91.20
2018-12-16T13:38:45.574Z,91.20
2018-12-16T13:41:14.335Z,91.20
2018-12-16T13:43:49.959Z,91.30
2018-12-16T13:46:19.310Z,91.30
2018-12-16T13:48:49.071Z,91.10
2018-12-16T13:51:18.428Z,91.20
2018-12-16T13:53:47.635Z,91.10
2018-12-16T13:56:17.051Z,91.20
2018-12-16T13:58:45.884Z,91.00
2018-12-16T14:01:14.568Z,91.10
2018-12-16T14:03:44.182Z,91.00
2018-12-16T14:06:13.261Z,91.00
2018-12-16T14:08:42.157Z,90.90
2018-12-16T14:11:10.863Z,90.90
2018-12-16T14:13:40.278Z,91.10
2018-12-16T14:16:09.827Z,90.90
2018-12-16T14:18:38.600Z,90.90
2018-12-16T14:21:07.619Z,90.90
2018-12-16T14:23:36.525Z,91.20
2018-12-16T14:26:05.271Z,91.10
2018-12-16T14:28:34.288Z,91.10
2018-12-16T14:31:03.362Z,91.40
2018-12-16T14:33:32.827Z,91.30
2018-12-16T14:36:02.432Z,91.70
2018-12-16T14:38:32.004Z,91.90
2018-12-16T14:41:01.036Z,91.80
2018-12-16T14:43:29.976Z,92.10
2018-12-16T14:45:59.699Z,92.10
2018-12-16T14:48:29.692Z,92.10
2018-12-16T14:50:58.542Z,92.00
2018-12-16T14:53:27.251Z,91.90
2018-12-16T14:55:56.374Z,91.90
2018-12-16T14:58:25.391Z,92.10
2018-12-16T15:00:54.953Z,92.10
2018-12-16T15:03:23.972Z,92.10
2018-12-16T15:05:52.867Z,92.00
2018-12-16T15:08:22.564Z,92.00
2018-12-16T15:10:51.931Z,92.00
2018-12-16T15:13:21.626Z,91.90
2018-12-16T15:15:50.417Z,92.00
2018-12-16T15:18:19.600Z,92.10
2018-12-16T15:20:48.803Z,91.80
2018-12-16T15:23:19.131Z,91.80
2018-12-16T15:25:48.015Z,91.60
2018-12-16T15:28:17.894Z,91.70
2018-12-16T15:30:47.955Z,91.90
2018-12-16T15:33:17.025Z,91.90
2018-12-16T15:35:46.345Z,91.90
2018-12-16T15:38:15.672Z,92.10
2018-12-16T15:40:45.639Z,92.20
2018-12-16T15:43:15.247Z,92.50
2018-12-16T15:45:44.491Z,92.40
2018-12-16T15:48:13.729Z,92.30
2018-12-16T15:50:42.660Z,92.50
2018-12-16T15:53:11.315Z,92.90
2018-12-16T15:55:40.377Z,92.70
2018-12-16T15:58:09.540Z,92.60
2018-12-16T16:00:38.863Z,92.60
2018-12-16T16:03:08.131Z,92.40
2018-12-16T16:05:36.936Z,92.10
2018-12-16T16:08:07.219Z,92.20
2018-12-16T16:10:36.140Z,92.40
2018-12-16T16:13:05.650Z,92.30
2018-12-16T16:15:35.262Z,92.50
2018-12-16T16:18:05.515Z,92.50
2018-12-16T16:20:34.450Z,92.30
2018-12-16T16:23:04.065Z,92.40
2018-12-16T16:25:32.881Z,92.30
2018-12-16T16:28:02.059Z,92.50
2018-12-16T16:30:31.551Z,92.30
2018-12-16T16:33:01.062Z,92.50
2018-12-16T16:35:29.695Z,92.60
2018-12-16T16:38:00.752Z,92.50
2018-12-16T16:40:30.670Z,92.40
2018-12-16T16:42:59.493Z,92.70
2018-12-16T16:45:28.877Z,92.70
2018-12-16T16:47:58.408Z,92.20
2018-12-16T16:50:28.027Z,92.00
2018-12-16T16:52:56.790Z,92.40
2018-12-16T16:55:25.958Z,92.50
2018-12-16T16:57:55.584Z,92.10
2018-12-16T17:00:25.323Z,91.90
2018-12-16T17:02:54.429Z,92.00
2018-12-16T17:05:23.023Z,92.40
2018-12-16T17:07:52.415Z,92.60
2018-12-16T17:10:21.382Z,92.60
2018-12-16T17:12:50.964Z,93.00
2018-12-16T17:15:20.067Z,92.50
2018-12-16T17:17:48.877Z,92.30
2018-12-16T17:20:18.382Z,92.50
2018-12-16T17:22:48.171Z,92.10
2018-12-16T17:25:17.698Z,92.60
2018-12-16T17:27:46.700Z,92.80
2018-12-16T17:30:15.697Z,92.70
2018-12-16T17:32:45.411Z,92.20
2018-12-16T17:35:14.666Z,92.70
2018-12-16T17:37:44.413Z,93.40
2018-12-16T17:40:13.259Z,92.80
2018-12-16T17:42:42.302Z,92.70
2018-12-16T17:45:12.033Z,92.80
2018-12-16T17:47:41.779Z,92.30
2018-12-16T17:50:12.235Z,92.30
2018-12-16T17:52:40.970Z,92.10
2018-12-16T17:55:10.104Z,92.20
2018-12-16T17:57:38.991Z,92.40
2018-12-16T18:00:10.484Z,92.70
2018-12-16T18:02:39.356Z,92.60
2018-12-16T18:05:08.297Z,92.80
2018-12-16T18:07:37.271Z,92.90
2018-12-16T18:10:06.714Z,92.60
2018-12-16T18:12:35.582Z,92.40
2018-12-16T18:15:05.623Z,92.50
2018-12-16T18:17:34.448Z,92.90
2018-12-16T18:20:03.498Z,92.90
2018-12-16T18:22:32.263Z,92.90
2018-12-16T18:25:01.844Z,92.50
2018-12-16T18:27:30.532Z,92.40
2018-12-16T18:30:00.002Z,92.60
2018-12-16T18:32:29.283Z,92.80
2018-12-16T18:34:58.452Z,92.60
2018-12-16T18:37:27.584Z,92.60
2018-12-16T18:39:56.305Z,92.90
2018-12-16T18:42:25.319Z,93.20
2018-12-16T18:44:54.149Z,93.10
2018-12-16T18:47:23.724Z,93.20
2018-12-16T18:49:52.959Z,93.10
2018-12-16T18:52:22.807Z,92.90
2018-12-16T18:54:52.404Z,92.90
2018-12-16T18:57:22.156Z,93.10
2018-12-16T18:59:51.032Z,92.40
2018-12-16T19:02:20.246Z,92.60
2018-12-16T19:04:49.118Z,92.70
2018-12-16T19:07:17.845Z,92.60
2018-12-16T19:09:46.608Z,92.50
2018-12-16T19:12:16.193Z,92.20
2018-12-16T19:14:46.138Z,92.80
2018-12-16T19:17:15.380Z,92.50
2018-12-16T19:19:44.917Z,92.70
2018-12-16T19:22:13.704Z,92.60
2018-12-16T19:24:42.517Z,92.50
2018-12-16T19:27:11.269Z,92.60
2018-12-16T19:29:41.043Z,93.10
2018-12-16T19:32:10.003Z,93.00
2018-12-16T19:34:39.126Z,92.90
2018-12-16T19:37:08.709Z,92.70
2018-12-16T19:39:38.311Z,92.60
2018-12-16T19:42:07.017Z,92.70
2018-12-16T19:44:36.154Z,93.10
2018-12-16T19:47:05.817Z,92.80
2018-12-16T19:49:35.440Z,92.70
2018-12-16T19:52:04.406Z,92.70
2018-12-16T19:54:33.527Z,92.60
2018-12-16T19:57:05.209Z,92.60
2018-12-16T19:59:34.122Z,92.40
2018-12-16T20:02:03.091Z,92.60
2018-12-16T20:04:37.345Z,92.30
2018-12-16T20:07:06.933Z,92.40
2018-12-16T20:09:36.482Z,92.10
2018-12-16T20:12:05.999Z,92.00
2018-12-16T20:14:34.655Z,92.10
2018-12-16T20:17:03.728Z,92.40
2018-12-16T20:19:32.520Z,92.40
2018-12-16T20:22:02.113Z,92.30
2018-12-16T20:24:31.317Z,92.10
2018-12-16T20:27:00.293Z,92.20
2018-12-16T20:29:29.843Z,92.10
2018-12-16T20:31:58.747Z,92.00
2018-12-16T20:34:27.728Z,92.00
2018-12-16T20:36:56.505Z,92.10
2018-12-16T20:39:25.155Z,91.90
2018-12-16T20:41:54.753Z,91.80
2018-12-16T20:44:23.412Z,92.30
2018-12-16T20:46:52.520Z,92.50
2018-12-16T20:49:21.248Z,92.60
2018-12-16T20:51:50.897Z,92.20
2018-12-16T20:54:20.476Z,92.20
2018-12-16T20:56:50.116Z,92.30
2018-12-16T20:59:20.702Z,92.40
2018-12-16T21:01:50.196Z,92.30
2018-12-16T21:04:19.820Z,92.20
2018-12-16T21:06:48.729Z,92.60
2018-12-16T21:09:17.868Z,92.50
2018-12-16T21:11:51.761Z,92.50
2018-12-16T21:14:26.369Z,92.40
2018-12-16T21:17:00.401Z,92.40
2018-12-16T21:19:29.740Z,92.50
2018-12-16T21:21:58.977Z,92.60
2018-12-16T21:24:27.668Z,92.20
2018-12-16T21:26:57.499Z,92.40
2018-12-16T21:29:26.961Z,92.20
2018-12-16T21:31:56.260Z,92.00
2018-12-16T21:34:25.724Z,91.90
2018-12-16T21:36:54.389Z,92.00
2018-12-16T21:39:23.894Z,92.30
2018-12-16T21:41:55.401Z,92.30
2018-12-16T21:44:24.282Z,92.40
2018-12-16T21:46:53.467Z,92.50
2018-12-16T21:49:23.014Z,92.50
2018-12-16T21:51:51.655Z,92.40
2018-12-16T21:54:20.807Z,92.40
2018-12-16T21:56:49.838Z,92.60
2018-12-16T21:59:19.392Z,92.50
2018-12-16T22:01:48.780Z,92.40
2018-12-16T22:04:18.387Z,92.50
2018-12-16T22:06:48.173Z,92.50
2018-12-16T22:09:17.133Z,92.40
2018-12-16T22:11:45.921Z,92.40
2018-12-16T22:14:14.767Z,92.30
2018-12-16T22:16:43.779Z,92.40
2018-12-16T22:19:12.606Z,92.30
2018-12-16T22:21:41.358Z,92.40
2018-12-16T22:24:10.784Z,92.20
2018-12-16T22:26:39.949Z,92.40
2018-12-16T22:29:08.970Z,92.20
2018-12-16T22:31:38.606Z,92.20
2018-12-16T22:34:08.110Z,92.30
2018-12-16T22:36:37.757Z,92.30
2018-12-16T22:39:08.024Z,92.20
2018-12-16T22:41:37.011Z,92.30
2018-12-16T22:44:06.214Z,92.20
2018-12-16T22:46:35.385Z,92.10
2018-12-16T22:49:04.209Z,92.10
2018-12-16T22:51:33.592Z,92.20
2018-12-16T22:54:02.374Z,92.00
2018-12-16T22:56:33.006Z,92.00
2018-12-16T22:59:02.451Z,92.10
2018-12-16T23:01:31.269Z,92.00
2018-12-16T23:04:00.586Z,91.90
2018-12-16T23:06:29.580Z,91.90
2018-12-16T23:08:59.289Z,92.00
2018-12-16T23:11:29.099Z,92.00
2018-12-16T23:13:58.359Z,92.00
2018-12-16T23:16:27.277Z,92.10
2018-12-16T23:18:56.243Z,92.20
2018-12-16T23:21:26.394Z,92.10
2018-12-16T23:23:55.051Z,92.20
2018-12-16T23:26:23.827Z,92.10
2018-12-16T23:28:53.066Z,92.20
2018-12-16T23:31:22.526Z,92.30
2018-12-16T23:33:51.443Z,92.20
2018-12-16T23:36:20.756Z,92.30
2018-12-16T23:38:49.600Z,92.40
2018-12-16T23:41:18.717Z,92.40
2018-12-16T23:43:48.039Z,92.60
2018-12-16T23:46:17.056Z,92.40
2018-12-16T23:48:46.619Z,92.40
2018-12-16T23:51:15.757Z,92.60
2018-12-16T23:53:45.153Z,92.70
2018-12-16T23:56:14.188Z,92.60
2018-12-16T23:58:43.177Z,92.50
